Time;durP1;ratioP1;P1;durP2;ratioP2;P2;SDS_P1;SDS_P2;PMS_P1;PMS_P2;Temp;Humidity;BMP_temperature;BMP_pressure;BME280_temperature;BME280_humidity;BME280_pressure;Samples;Min_cycle;Max_cycle;Signal;HPM_P1;HPM_P2
2022/12/12 00:01:25;;;;;;;6.13;4.07;;;4.00;88.50;;;;;;4909278;29;20754;-69
2022/12/12 00:03:54;;;;;;;4.47;3.85;;;4.10;88.60;;;;;;4923034;28;20705;-69
2022/12/12 00:06:22;;;;;;;5.05;3.53;;;4.00;88.50;;;;;;4916059;29;20197;-70
2022/12/12 00:08:51;;;;;;;4.97;3.72;;;4.00;88.40;;;;;;4918045;29;20336;-68
2022/12/12 00:11:22;;;;;;;5.85;4.35;;;4.00;88.50;;;;;;4913275;29;20200;-70
2022/12/12 00:13:54;;;;;;;4.88;3.53;;;4.00;88.50;;;;;;4911257;29;20324;-71
2022/12/12 00:16:23;;;;;;;4.18;3.78;;;4.00;88.40;;;;;;4912709;29;20281;-68
2022/12/12 00:18:51;;;;;;;5.15;4.00;;;4.00;88.40;;;;;;4917991;29;20288;-69
2022/12/12 00:21:22;;;;;;;4.20;3.55;;;4.00;88.50;;;;;;4914269;29;20293;-69
2022/12/12 00:23:51;;;;;;;7.05;3.97;;;4.00;88.40;;;;;;4918364;28;20312;-70
2022/12/12 00:26:23;;;;;;;4.28;3.45;;;4.00;88.40;;;;;;4931281;29;20699;-68
2022/12/12 00:28:52;;;;;;;5.55;3.65;;;4.00;88.40;;;;;;4916716;29;20749;-69
2022/12/12 00:31:20;;;;;;;4.97;3.45;;;4.00;88.60;;;;;;4922322;29;20206;-70
2022/12/12 00:33:50;;;;;;;4.10;3.50;;;4.00;88.40;;;;;;4919631;28;20233;-69
2022/12/12 00:36:20;;;;;;;5.45;3.70;;;4.00;88.40;;;;;;4927742;29;20315;-69
2022/12/12 00:38:48;;;;;;;4.72;3.63;;;4.00;88.60;;;;;;4913390;28;20671;-69
2022/12/12 00:41:17;;;;;;;7.45;3.75;;;4.00;88.50;;;;;;4911685;29;20208;-69
2022/12/12 00:43:46;;;;;;;5.53;4.28;;;4.00;88.40;;;;;;4916658;29;20260;-69
2022/12/12 00:46:16;;;;;;;4.40;3.70;;;4.00;88.40;;;;;;4921211;29;20239;-70
2022/12/12 00:48:45;;;;;;;5.47;3.45;;;4.00;88.40;;;;;;4903243;29;20225;-68
2022/12/12 00:51:15;;;;;;;6.88;4.55;;;4.00;88.40;;;;;;4919086;29;20200;-70
2022/12/12 00:53:44;;;;;;;5.53;4.00;;;4.00;88.40;;;;;;4929102;28;20907;-68
2022/12/12 00:56:15;;;;;;;4.65;3.55;;;4.00;88.40;;;;;;4912067;29;20208;-69
2022/12/12 00:58:43;;;;;;;4.28;3.80;;;4.00;88.40;;;;;;4924937;28;20311;-68
2022/12/12 01:01:15;;;;;;;4.72;3.78;;;4.00;88.40;;;;;;4913249;29;20449;-69
2022/12/12 01:03:43;;;;;;;6.35;3.90;;;4.00;88.40;;;;;;4920698;28;20248;-69
2022/12/12 01:06:12;;;;;;;4.65;3.75;;;4.00;88.40;;;;;;4913337;29;20688;-69
2022/12/12 01:08:41;;;;;;;4.60;4.18;;;4.00;89.60;;;;;;4907803;29;20239;-68
2022/12/12 01:11:11;;;;;;;5.30;3.97;;;4.00;88.40;;;;;;4911512;29;20208;-70
2022/12/12 01:13:40;;;;;;;7.10;4.07;;;4.00;88.40;;;;;;4909365;29;20221;-69
2022/12/12 01:16:09;;;;;;;5.53;3.90;;;4.00;88.30;;;;;;4911806;29;20255;-69
2022/12/12 01:18:40;;;;;;;4.50;3.70;;;4.00;88.40;;;;;;4914988;29;20232;-68
2022/12/12 01:21:09;;;;;;;6.50;4.38;;;4.00;88.30;;;;;;4918303;29;20201;-69
2022/12/12 01:23:40;;;;;;;6.72;4.38;;;4.00;88.40;;;;;;4910250;29;20276;-70
2022/12/12 01:26:10;;;;;;;6.63;4.82;;;4.00;88.40;;;;;;4926256;29;20425;-68
2022/12/12 01:28:39;;;;;;;6.72;3.75;;;4.00;88.40;;;;;;4915232;29;20233;-70
2022/12/12 01:31:08;;;;;;;4.38;3.72;;;4.00;88.40;;;;;;4925966;29;21041;-67
2022/12/12 01:33:38;;;;;;;6.05;4.05;;;4.00;88.40;;;;;;4907460;29;20308;-69
2022/12/12 01:36:07;;;;;;;5.10;3.90;;;4.00;88.40;;;;;;4921665;29;20232;-69
2022/12/12 01:38:36;;;;;;;4.63;3.25;;;4.00;88.40;;;;;;4899031;29;20488;-70
2022/12/12 01:41:04;;;;;;;5.18;3.67;;;4.00;88.40;;;;;;4912007;29;20272;-70
2022/12/12 01:43:33;;;;;;;5.55;4.05;;;4.00;88.40;;;;;;4918816;29;20647;-69
2022/12/12 01:46:41;;;;;;;5.70;4.35;;;4.00;88.40;;;;;;4910120;29;20208;-69
2022/12/12 01:49:17;;;;;;;5.57;4.35;;;4.00;88.30;;;;;;4915632;28;20593;-70
2022/12/12 01:51:47;;;;;;;7.72;3.95;;;4.00;88.40;;;;;;4910320;29;20666;-68
2022/12/12 01:54:19;;;;;;;4.47;3.80;;;4.00;88.30;;;;;;4907575;29;20604;-70
2022/12/12 01:56:49;;;;;;;5.32;3.60;;;4.00;88.30;;;;;;4918103;29;20203;-68
2022/12/12 01:59:21;;;;;;;5.40;3.60;;;4.00;88.40;;;;;;4909204;29;20232;-70
2022/12/12 02:01:49;;;;;;;5.20;3.95;;;4.00;88.30;;;;;;4912242;29;20481;-70
2022/12/12 02:04:21;;;;;;;5.32;3.60;;;4.00;88.30;;;;;;4910767;29;20213;-70
2022/12/12 02:06:50;;;;;;;6.15;3.60;;;4.00;88.40;;;;;;4912369;29;21130;-68
2022/12/12 02:09:20;;;;;;;4.45;3.03;;;4.00;88.40;;;;;;4924381;29;20225;-69
2022/12/12 02:11:53;;;;;;;9.55;3.75;;;4.00;88.30;;;;;;4912061;29;20199;-67
2022/12/12 02:14:26;;;;;;;3.75;3.35;;;4.00;88.40;;;;;;4934724;28;20787;-70
2022/12/12 02:17:13;;;;;;;5.13;3.28;;;4.00;88.40;;;;;;4902539;29;20317;-70
2022/12/12 02:20:15;;;;;;;2.97;2.65;;;4.00;88.30;;;;;;4910738;29;20221;-70
2022/12/12 02:23:14;;;;;;;5.03;3.88;;;4.00;88.20;;;;;;4899124;29;20228;-68
2022/12/12 02:26:05;;;;;;;7.25;3.33;;;4.00;88.30;;;;;;4909760;29;20204;-70
2022/12/12 02:29:18;;;;;;;4.88;3.80;;;4.00;88.30;;;;;;4924602;28;20284;-69
2022/12/12 02:31:52;;;;;;;5.20;4.00;;;4.00;88.30;;;;;;4858750;29;20198;-68
2022/12/12 02:34:29;;;;;;;3.70;3.00;;;4.00;88.30;;;;;;4900315;29;20232;-68
2022/12/12 02:37:06;;;;;;;4.95;3.25;;;4.00;88.40;;;;;;4920092;29;20664;-69
2022/12/12 02:39:45;;;;;;;4.93;3.38;;;3.90;88.10;;;;;;4916459;28;20328;-69
2022/12/12 02:42:23;;;;;;;6.47;4.00;;;3.90;88.20;;;;;;4911492;29;20671;-68
2022/12/12 02:44:56;;;;;;;7.95;4.55;;;3.90;88.20;;;;;;4932759;29;20221;-67
2022/12/12 02:47:30;;;;;;;4.53;4.13;;;3.90;88.10;;;;;;4913182;29;20697;-69
2022/12/12 02:50:04;;;;;;;6.82;3.90;;;3.90;88.20;;;;;;4917263;29;20606;-68
2022/12/12 02:52:33;;;;;;;5.88;3.22;;;3.90;88.10;;;;;;4911518;29;20279;-68
2022/12/12 02:55:01;;;;;;;4.55;3.95;;;3.90;88.10;;;;;;4909159;29;20227;-67
2022/12/12 02:57:29;;;;;;;4.15;3.30;;;3.90;88.50;;;;;;4922096;29;20225;-67
2022/12/12 03:00:01;;;;;;;4.60;3.60;;;3.90;88.20;;;;;;4924697;29;20204;-67
2022/12/12 03:02:48;;;;;;;3.85;3.45;;;3.90;88.10;;;;;;4908176;29;20268;-69
2022/12/12 03:08:48;;;;;;;3.80;3.40;;;3.90;88.10;;;;;;4910596;29;20689;-68
2022/12/12 03:11:24;;;;;;;6.10;3.97;;;3.90;88.10;;;;;;4909293;29;20296;-68
2022/12/12 03:13:56;;;;;;;3.55;2.72;;;4.00;88.20;;;;;;4919570;29;20575;-66
2022/12/12 03:16:28;;;;;;;5.55;3.90;;;3.90;88.10;;;;;;4925817;29;20304;-68
2022/12/12 03:19:06;;;;;;;5.72;3.60;;;3.90;88.20;;;;;;4908909;29;20225;-69
2022/12/12 03:21:39;;;;;;;6.13;3.80;;;3.90;88.20;;;;;;4907159;29;20227;-69
2022/12/12 03:24:14;;;;;;;4.22;2.88;;;3.90;88.10;;;;;;4915628;29;20248;-68
2022/12/12 03:26:47;;;;;;;6.63;3.40;;;3.90;88.10;;;;;;4920211;29;20207;-66
2022/12/12 03:29:20;;;;;;;6.53;4.55;;;3.90;88.10;;;;;;4911058;29;20229;-67
2022/12/12 03:31:54;;;;;;;5.28;3.85;;;3.90;88.00;;;;;;4930544;29;20200;-68
2022/12/12 03:34:27;;;;;;;4.20;3.33;;;3.90;88.00;;;;;;4917402;29;20236;-69
2022/12/12 03:37:00;;;;;;;4.90;3.67;;;3.90;88.00;;;;;;4915649;29;20308;-69
2022/12/12 03:39:33;;;;;;;4.85;3.40;;;3.90;88.00;;;;;;4905325;29;20600;-67
2022/12/12 03:42:09;;;;;;;5.45;3.85;;;3.90;88.00;;;;;;4916067;29;20201;-66
2022/12/12 03:44:42;;;;;;;5.88;3.58;;;3.90;88.00;;;;;;4898251;29;20222;-68
2022/12/12 03:47:16;;;;;;;6.07;3.40;;;3.90;88.00;;;;;;4920016;29;20253;-69
2022/12/12 03:49:54;;;;;;;6.85;4.32;;;3.90;88.10;;;;;;4908153;29;20555;-68
2022/12/12 03:52:26;;;;;;;5.38;3.42;;;3.90;88.10;;;;;;4915629;29;20288;-67
2022/12/12 03:55:00;;;;;;;7.28;3.92;;;3.90;88.10;;;;;;4902593;29;20220;-66
2022/12/12 03:57:33;;;;;;;3.70;3.00;;;3.90;88.00;;;;;;4922280;29;20231;-68
2022/12/12 04:00:05;;;;;;;4.50;3.03;;;3.90;88.00;;;;;;4915655;29;20295;-66
2022/12/12 04:02:51;;;;;;;5.18;3.22;;;3.90;88.00;;;;;;4914456;29;20492;-66
2022/12/12 04:05:25;;;;;;;5.55;3.42;;;3.90;88.00;;;;;;4908192;29;20292;-68
2022/12/12 04:08:01;;;;;;;2.90;2.60;;;3.90;87.90;;;;;;4914918;29;20312;-67
2022/12/12 04:13:32;;;;;;;6.57;3.08;;;3.90;87.90;;;;;;4912894;29;20229;-67
2022/12/12 04:16:04;;;;;;;4.10;3.08;;;3.90;87.90;;;;;;4911278;29;20244;-67
2022/12/12 04:18:42;;;;;;;5.35;3.58;;;3.90;87.80;;;;;;4933682;28;20730;-69
2022/12/12 04:24:23;;;;;;;6.70;3.78;;;3.90;87.90;;;;;;4913860;28;20251;-68
2022/12/12 04:26:59;;;;;;;4.10;3.20;;;3.90;87.90;;;;;;4912300;29;20664;-68
2022/12/12 04:29:37;;;;;;;4.18;3.35;;;3.90;87.80;;;;;;4925223;28;20274;-68
2022/12/12 04:32:14;;;;;;;5.05;3.83;;;3.90;87.80;;;;;;4914777;29;20236;-67
2022/12/12 04:34:47;;;;;;;6.57;2.72;;;3.90;87.80;;;;;;4930120;29;20776;-67
2022/12/12 04:37:21;;;;;;;5.00;3.60;;;3.90;87.90;;;;;;4911210;29;20538;-66
2022/12/12 04:39:53;;;;;;;4.15;3.10;;;3.90;87.90;;;;;;4913215;29;20263;-66
2022/12/12 04:42:24;;;;;;;4.68;3.20;;;3.90;87.90;;;;;;4922473;29;20284;-67
2022/12/12 04:44:56;;;;;;;6.88;3.50;;;3.90;87.90;;;;;;4919905;29;20228;-67
2022/12/12 04:47:28;;;;;;;3.85;2.65;;;3.80;87.90;;;;;;4907116;29;20314;-68
2022/12/12 04:49:58;;;;;;;6.03;3.67;;;3.90;87.90;;;;;;4911384;29;20280;-66
2022/12/12 04:52:33;;;;;;;4.65;3.53;;;3.90;87.90;;;;;;4927039;29;20197;-68
2022/12/12 04:55:05;;;;;;;6.15;3.58;;;3.80;87.80;;;;;;4929047;29;20212;-68
2022/12/12 04:57:38;;;;;;;6.10;3.40;;;3.80;87.70;;;;;;4914738;29;20542;-67
2022/12/12 05:00:08;;;;;;;5.57;3.67;;;3.90;87.80;;;;;;4927948;29;20587;-66
2022/12/12 05:02:42;;;;;;;6.00;3.95;;;3.80;87.80;;;;;;4919771;29;20612;-66
2022/12/12 05:05:14;;;;;;;4.97;3.55;;;3.80;87.80;;;;;;4911079;29;20287;-67
2022/12/12 05:07:50;;;;;;;5.50;4.00;;;3.90;87.90;;;;;;4914569;29;20231;-66
2022/12/12 05:10:19;;;;;;;4.70;3.58;;;3.80;87.70;;;;;;4909600;29;20218;-67
2022/12/12 05:12:49;;;;;;;5.15;3.22;;;3.80;87.80;;;;;;4916396;29;20196;-66
2022/12/12 05:15:20;;;;;;;5.07;3.55;;;3.80;89.00;;;;;;4912938;29;20699;-65
2022/12/12 05:17:52;;;;;;;5.65;3.45;;;3.80;87.80;;;;;;4907148;29;20257;-67
2022/12/12 05:20:20;;;;;;;6.30;3.20;;;3.80;87.80;;;;;;4918880;29;20207;-65
2022/12/12 05:22:50;;;;;;;3.88;2.70;;;3.80;87.70;;;;;;4910573;29;20205;-67
2022/12/12 05:25:18;;;;;;;5.22;3.60;;;3.80;87.70;;;;;;4924328;29;20299;-65
2022/12/12 05:27:47;;;;;;;5.40;3.00;;;3.80;87.80;;;;;;4909779;29;20225;-66
2022/12/12 05:30:15;;;;;;;6.20;3.47;;;3.80;87.70;;;;;;4911431;29;20305;-66
2022/12/12 05:32:43;;;;;;;6.25;3.70;;;3.80;87.70;;;;;;4917308;29;20285;-66
2022/12/12 05:35:12;;;;;;;4.82;3.25;;;3.80;87.70;;;;;;4910110;29;20202;-67
2022/12/12 05:37:41;;;;;;;4.60;3.53;;;3.80;87.70;;;;;;4908931;29;20244;-68
2022/12/12 05:40:19;;;;;;;7.22;4.22;;;3.80;87.70;;;;;;4915916;29;20721;-67
2022/12/12 05:42:48;;;;;;;5.05;4.13;;;3.80;87.70;;;;;;4911000;29;20737;-69
2022/12/12 05:45:16;;;;;;;6.20;3.70;;;3.80;87.70;;;;;;4917448;29;20300;-68
2022/12/12 05:47:45;;;;;;;4.57;2.80;;;3.80;87.70;;;;;;4910557;29;20299;-67
2022/12/12 05:50:13;;;;;;;4.72;3.17;;;3.80;87.70;;;;;;4918441;29;20555;-66
2022/12/12 05:52:42;;;;;;;5.78;3.80;;;3.80;87.60;;;;;;4920821;29;20201;-69
2022/12/12 05:55:10;;;;;;;6.05;3.40;;;3.80;87.60;;;;;;4924102;29;20197;-67
2022/12/12 05:57:40;;;;;;;5.07;3.53;;;3.80;87.60;;;;;;4912826;29;20716;-66
2022/12/12 06:00:10;;;;;;;4.50;3.40;;;3.80;87.70;;;;;;4918680;29;20292;-68
2022/12/12 06:02:38;;;;;;;4.80;3.17;;;3.80;87.60;;;;;;4917436;29;20205;-67
2022/12/12 06:05:08;;;;;;;12.82;3.50;;;3.80;87.60;;;;;;4906404;29;20556;-66
2022/12/12 06:07:36;;;;;;;4.72;3.45;;;3.80;87.60;;;;;;4913464;29;20216;-67
2022/12/12 06:10:06;;;;;;;6.53;4.15;;;3.80;87.60;;;;;;4909281;29;20276;-66
2022/12/12 06:12:34;;;;;;;5.55;2.90;;;3.80;87.50;;;;;;4910632;29;20201;-67
2022/12/12 06:15:05;;;;;;;7.80;4.03;;;3.80;87.60;;;;;;4906420;29;20293;-65
2022/12/12 06:17:33;;;;;;;6.95;3.95;;;3.80;87.60;;;;;;4927443;29;20331;-67
2022/12/12 06:20:01;;;;;;;4.90;3.40;;;3.80;87.60;;;;;;4904647;29;20212;-66
2022/12/12 06:22:30;;;;;;;4.68;3.42;;;3.80;87.50;;;;;;4915234;29;20197;-67
2022/12/12 06:24:58;;;;;;;4.30;3.70;;;3.80;87.60;;;;;;4906370;29;20253;-66
2022/12/12 06:27:26;;;;;;;4.57;3.17;;;3.80;87.60;;;;;;4916680;29;20562;-66
2022/12/12 06:29:55;;;;;;;5.18;3.85;;;3.80;87.60;;;;;;4909229;29;20201;-67
2022/12/12 06:32:25;;;;;;;5.60;3.55;;;3.80;87.60;;;;;;4909306;29;20205;-66
2022/12/12 06:34:53;;;;;;;5.60;3.65;;;3.80;87.60;;;;;;4930323;29;20685;-67
2022/12/12 06:37:21;;;;;;;4.88;3.25;;;3.70;87.40;;;;;;4914237;29;20229;-68
2022/12/12 06:39:50;;;;;;;5.55;3.50;;;3.80;87.50;;;;;;4913988;29;20272;-68
2022/12/12 06:42:18;;;;;;;5.78;3.75;;;3.70;87.40;;;;;;4908769;29;20272;-67
2022/12/12 06:44:46;;;;;;;4.45;3.50;;;3.80;87.50;;;;;;4909200;29;20221;-66
2022/12/12 06:47:15;;;;;;;6.30;3.35;;;3.70;87.50;;;;;;4923903;29;20225;-66
2022/12/12 06:49:44;;;;;;;3.97;2.92;;;3.80;87.60;;;;;;4913779;29;20340;-67
2022/12/12 06:52:13;;;;;;;3.80;3.35;;;3.80;87.50;;;;;;4911587;29;20297;-68
2022/12/12 06:54:41;;;;;;;5.80;3.35;;;3.70;87.50;;;;;;4907350;29;20525;-66
2022/12/12 06:57:09;;;;;;;4.35;3.03;;;3.70;87.40;;;;;;4911984;29;20312;-66
2022/12/12 06:59:38;;;;;;;6.55;3.22;;;3.70;87.50;;;;;;4916354;28;20256;-67
2022/12/12 07:02:07;;;;;;;5.90;3.47;;;3.70;87.40;;;;;;4902709;29;20208;-68
2022/12/12 07:04:35;;;;;;;3.58;2.58;;;3.70;87.40;;;;;;4921069;29;20228;-66
2022/12/12 07:07:05;;;;;;;5.70;3.25;;;3.70;87.40;;;;;;4927337;29;20965;-66
2022/12/12 07:09:33;;;;;;;4.30;2.90;;;3.70;87.40;;;;;;4918895;29;20424;-66
2022/12/12 07:12:02;;;;;;;5.22;3.53;;;3.70;87.50;;;;;;4914867;29;20240;-66
2022/12/12 07:14:30;;;;;;;4.35;3.03;;;3.70;87.50;;;;;;4909046;29;20229;-65
2022/12/12 07:16:58;;;;;;;5.13;3.28;;;3.70;87.40;;;;;;4928640;29;20190;-73
2022/12/12 07:19:27;;;;;;;4.10;2.65;;;3.70;87.40;;;;;;4911302;29;20248;-72
2022/12/12 07:21:55;;;;;;;4.05;2.92;;;3.70;87.40;;;;;;4909313;29;20186;-74
2022/12/12 07:24:25;;;;;;;4.78;2.97;;;3.70;87.40;;;;;;4909896;29;20265;-73
2022/12/12 07:26:53;;;;;;;4.20;2.83;;;3.70;87.50;;;;;;4908096;29;20200;-72
2022/12/12 07:29:21;;;;;;;3.33;2.80;;;3.70;87.40;;;;;;4908365;29;20221;-73
2022/12/12 07:31:49;;;;;;;5.95;3.28;;;3.70;87.40;;;;;;4908693;29;20616;-73
2022/12/12 07:34:17;;;;;;;4.60;2.63;;;3.70;87.40;;;;;;4917256;29;20228;-72
2022/12/12 07:36:46;;;;;;;3.35;3.05;;;3.70;87.40;;;;;;4920102;29;20724;-74
2022/12/12 07:39:14;;;;;;;4.88;2.70;;;3.70;87.40;;;;;;4912843;28;20241;-73
2022/12/12 07:41:49;;;;;;;4.72;2.85;;;3.70;87.30;;;;;;4916503;29;20197;-73
2022/12/12 07:44:21;;;;;;;3.80;3.00;;;3.70;87.30;;;;;;4908488;29;20277;-73
2022/12/12 07:46:49;;;;;;;3.28;2.63;;;3.70;87.40;;;;;;4916692;29;20201;-72
2022/12/12 07:49:18;;;;;;;5.55;3.15;;;3.70;87.30;;;;;;4908391;29;20227;-73
2022/12/12 07:51:46;;;;;;;4.93;3.35;;;3.70;87.40;;;;;;4915837;29;20200;-72
2022/12/12 07:54:16;;;;;;;5.85;3.40;;;3.70;87.30;;;;;;4908254;29;20225;-73
2022/12/12 07:56:45;;;;;;;4.50;3.05;;;3.70;87.30;;;;;;4932672;29;20201;-73
2022/12/12 07:59:14;;;;;;;5.18;3.40;;;3.70;87.30;;;;;;4916580;29;20225;-73
2022/12/12 08:01:43;;;;;;;5.85;3.38;;;3.70;87.30;;;;;;4916903;29;20207;-74
2022/12/12 08:04:11;;;;;;;7.43;3.78;;;3.70;87.30;;;;;;4915016;29;20225;-73
2022/12/12 08:06:39;;;;;;;5.20;3.25;;;3.70;87.30;;;;;;4923695;29;20695;-73
2022/12/12 08:09:08;;;;;;;3.38;3.08;;;3.70;87.30;;;;;;4913438;29;20250;-74
2022/12/12 08:11:36;;;;;;;6.70;3.88;;;3.70;87.30;;;;;;4929232;29;20185;-74
2022/12/12 08:14:10;;;;;;;4.95;3.40;;;3.70;87.30;;;;;;4927042;29;20308;-73
2022/12/12 08:16:42;;;;;;;4.85;3.58;;;3.70;87.30;;;;;;4923348;29;20268;-73
2022/12/12 08:19:11;;;;;;;4.88;3.60;;;3.70;87.30;;;;;;4910592;29;20233;-73
2022/12/12 08:21:39;;;;;;;4.35;3.20;;;3.70;87.30;;;;;;4921482;29;20217;-74
2022/12/12 08:24:10;;;;;;;8.65;3.60;;;3.70;87.30;;;;;;4910639;28;20218;-73
2022/12/12 08:26:39;;;;;;;7.28;3.13;;;3.60;87.20;;;;;;4911981;29;20197;-73
2022/12/12 08:29:08;;;;;;;5.65;3.30;;;3.60;87.10;;;;;;4933052;29;20635;-72
2022/12/12 08:31:38;;;;;;;5.25;3.40;;;3.70;87.20;;;;;;4920358;29;20209;-72
2022/12/12 08:34:07;;;;;;;3.58;2.83;;;3.60;87.20;;;;;;4926492;29;20229;-73
2022/12/12 08:36:36;;;;;;;3.65;2.80;;;3.60;87.20;;;;;;4920390;29;20204;-73
2022/12/12 08:39:07;;;;;;;3.00;2.60;;;3.60;87.20;;;;;;4912403;29;20313;-73
2022/12/12 08:41:39;;;;;;;4.93;2.90;;;3.60;87.20;;;;;;4906493;29;20666;-73
2022/12/12 08:44:07;;;;;;;4.63;2.70;;;3.60;87.20;;;;;;4910241;29;20217;-73
2022/12/12 08:46:36;;;;;;;3.33;2.58;;;3.60;87.20;;;;;;4912127;29;20254;-73
2022/12/12 08:49:04;;;;;;;4.47;2.72;;;3.60;87.20;;;;;;4910638;29;20308;-72
2022/12/12 08:51:34;;;;;;;3.03;2.63;;;3.60;87.10;;;;;;4931158;29;20197;-73
2022/12/12 08:54:03;;;;;;;5.65;3.13;;;3.60;87.10;;;;;;4916429;28;20281;-65
2022/12/12 08:56:31;;;;;;;4.07;3.13;;;3.60;87.10;;;;;;4911761;29;20264;-64
2022/12/12 08:59:00;;;;;;;3.90;3.15;;;3.60;86.90;;;;;;4918437;28;20220;-66
2022/12/12 09:01:28;;;;;;;3.38;2.92;;;3.60;87.00;;;;;;4914815;29;20198;-66
2022/12/12 09:03:58;;;;;;;5.88;3.95;;;3.60;87.00;;;;;;4915629;29;20304;-65
2022/12/12 09:06:26;;;;;;;4.00;3.10;;;3.60;86.90;;;;;;4913169;29;20231;-67
2022/12/12 09:08:57;;;;;;;3.85;2.97;;;3.60;86.90;;;;;;4916518;29;20713;-65
2022/12/12 09:11:26;;;;;;;4.55;3.20;;;3.60;86.90;;;;;;4913456;29;20205;-66
2022/12/12 09:13:54;;;;;;;11.13;5.90;;;3.60;86.80;;;;;;4923472;29;20678;-73
2022/12/12 09:16:25;;;;;;;14.80;13.05;;;3.70;86.00;;;;;;4915535;29;20657;-73
2022/12/12 09:18:53;;;;;;;14.23;7.88;;;3.70;84.20;;;;;;4918999;28;20236;-67
2022/12/12 09:21:22;;;;;;;10.77;8.18;;;3.70;85.50;;;;;;4919053;29;20208;-67
2022/12/12 09:23:50;;;;;;;9.90;7.88;;;3.60;84.50;;;;;;4911853;29;20221;-67
2022/12/12 09:26:20;;;;;;;10.30;7.80;;;3.60;84.00;;;;;;4911018;29;20309;-67
2022/12/12 09:28:49;;;;;;;9.88;6.70;;;3.60;84.40;;;;;;4924993;29;20225;-67
2022/12/12 09:31:18;;;;;;;9.80;7.18;;;3.60;84.60;;;;;;4922883;29;20559;-67
2022/12/12 09:33:47;;;;;;;8.07;6.53;;;3.60;84.70;;;;;;4910472;29;20710;-67
2022/12/12 09:36:15;;;;;;;7.22;6.47;;;3.60;84.70;;;;;;4918989;29;20202;-69
2022/12/12 09:38:44;;;;;;;10.95;6.88;;;3.60;84.70;;;;;;4910025;29;20597;-67
2022/12/12 09:41:15;;;;;;;8.27;6.20;;;3.60;84.70;;;;;;4918621;29;20660;-67
2022/12/12 09:43:53;;;;;;;10.73;6.05;;;3.70;84.80;;;;;;4918169;28;20221;-67
2022/12/12 09:46:29;;;;;;;9.25;6.30;;;3.70;84.90;;;;;;4913890;29;20205;-68
2022/12/12 09:49:04;;;;;;;6.22;5.18;;;3.70;85.00;;;;;;4920826;29;20220;-68
2022/12/12 09:51:33;;;;;;;8.27;5.88;;;3.70;85.00;;;;;;4911080;29;20193;-67
2022/12/12 09:54:01;;;;;;;6.88;5.28;;;3.70;85.00;;;;;;4916906;29;20621;-67
2022/12/12 09:56:37;;;;;;;8.18;6.53;;;3.70;85.00;;;;;;4921916;29;20289;-67
2022/12/12 09:59:14;;;;;;;8.57;6.55;;;3.70;85.00;;;;;;4910599;29;20228;-68
2022/12/12 10:01:52;;;;;;;7.40;6.38;;;3.70;85.10;;;;;;4923449;29;20228;-67
2022/12/12 10:04:28;;;;;;;8.63;6.32;;;3.70;85.10;;;;;;4915625;29;20232;-68
2022/12/12 10:07:02;;;;;;;8.70;6.18;;;3.70;85.00;;;;;;4907801;29;20230;-68
2022/12/12 10:09:39;;;;;;;6.80;5.15;;;3.70;85.10;;;;;;4929705;29;20316;-67
2022/12/12 10:12:12;;;;;;;5.38;4.72;;;3.70;85.10;;;;;;4908145;29;20568;-67
2022/12/12 10:14:45;;;;;;;7.10;6.10;;;3.70;85.10;;;;;;4907029;29;20220;-68
2022/12/12 10:17:18;;;;;;;7.25;5.70;;;3.70;84.30;;;;;;4919154;29;20231;-68
2022/12/12 10:19:51;;;;;;;6.72;5.55;;;3.70;84.40;;;;;;4923162;29;20251;-68
2022/12/12 10:22:28;;;;;;;7.30;5.50;;;3.70;84.20;;;;;;4922530;29;20205;-68
2022/12/12 10:25:03;;;;;;;6.43;4.70;;;3.70;84.40;;;;;;4909565;29;20624;-68
2022/12/12 10:27:32;;;;;;;6.00;5.15;;;3.70;84.40;;;;;;4917670;29;20205;-69
2022/12/12 10:30:14;;;;;;;7.50;6.65;;;3.70;84.60;;;;;;4918860;29;20190;-67
2022/12/12 10:32:56;;;;;;;7.55;5.30;;;3.70;84.50;;;;;;4909595;29;20232;-68
2022/12/12 10:35:29;;;;;;;5.93;5.32;;;3.70;84.50;;;;;;4926161;29;20205;-68
2022/12/12 10:38:08;;;;;;;7.28;4.50;;;3.70;84.70;;;;;;4924639;29;20613;-68
2022/12/12 10:40:50;;;;;;;7.40;6.40;;;3.70;84.90;;;;;;4906183;29;20235;-73
2022/12/12 10:43:22;;;;;;;11.27;6.90;;;3.70;85.10;;;;;;4907761;29;20635;-72
2022/12/12 10:46:12;;;;;;;8.43;6.22;;;3.70;84.40;;;;;;4908072;29;20308;-72
2022/12/12 10:48:41;;;;;;;9.93;6.35;;;3.70;84.40;;;;;;4902271;29;20233;-72
2022/12/12 10:51:13;;;;;;;9.10;6.03;;;3.70;84.60;;;;;;4910481;29;20492;-72
2022/12/12 10:53:42;;;;;;;8.98;5.60;;;3.70;84.60;;;;;;4910412;28;20217;-72
2022/12/12 10:56:18;;;;;;;11.50;6.53;;;3.70;84.70;;;;;;4923067;29;20669;-73
2022/12/12 10:58:54;;;;;;;6.80;5.90;;;3.70;84.70;;;;;;4905223;29;20244;-73
2022/12/12 11:01:27;;;;;;;8.65;6.80;;;3.70;84.80;;;;;;4913297;29;20197;-72
2022/12/12 11:04:16;;;;;;;8.68;5.85;;;3.70;84.90;;;;;;4924921;28;20402;-72
2022/12/12 11:06:48;;;;;;;6.03;5.43;;;3.70;85.00;;;;;;4925108;29;20193;-72
2022/12/12 11:09:20;;;;;;;6.82;5.75;;;3.70;85.00;;;;;;4914327;29;20244;-69
2022/12/12 11:12:01;;;;;;;10.80;6.50;;;3.70;85.00;;;;;;4909354;29;20257;-68
2022/12/12 11:14:34;;;;;;;11.52;6.00;;;3.80;85.10;;;;;;4916065;29;20284;-68
2022/12/12 11:17:20;;;;;;;6.85;6.10;;;3.80;85.20;;;;;;4911635;29;20233;-68
2022/12/12 11:19:49;;;;;;;7.03;5.55;;;3.80;85.10;;;;;;4926852;29;20228;-68
2022/12/12 11:22:17;;;;;;;8.40;4.85;;;3.80;85.20;;;;;;4921605;29;20206;-68
2022/12/12 11:24:47;;;;;;;8.75;5.82;;;3.80;85.20;;;;;;4909137;29;20276;-67
2022/12/12 11:27:21;;;;;;;6.72;4.72;;;3.80;85.20;;;;;;4921064;29;20493;-67
2022/12/12 11:29:51;;;;;;;7.53;5.10;;;3.80;85.30;;;;;;4916141;29;20229;-67
2022/12/12 11:32:24;;;;;;;6.32;4.55;;;3.80;85.20;;;;;;4911801;29;20327;-68
2022/12/12 11:34:55;;;;;;;6.28;4.90;;;3.80;85.20;;;;;;4933079;29;20209;-68
2022/12/12 11:37:27;;;;;;;5.68;4.45;;;3.80;86.50;;;;;;4915838;29;20280;-68
2022/12/12 11:39:57;;;;;;;7.03;5.38;;;3.80;85.30;;;;;;4914182;29;20767;-68
2022/12/12 11:42:28;;;;;;;6.85;5.10;;;3.80;85.20;;;;;;4897654;29;20299;-69
2022/12/12 11:45:02;;;;;;;9.10;4.80;;;3.80;86.50;;;;;;4926510;29;20201;-69
2022/12/12 11:47:39;;;;;;;7.13;4.82;;;3.80;85.20;;;;;;4918860;29;20293;-69
2022/12/12 11:50:20;;;;;;;7.10;5.20;;;3.90;85.30;;;;;;4913350;29;20579;-67
2022/12/12 11:52:49;;;;;;;4.63;4.10;;;3.90;85.40;;;;;;4935912;29;20237;-68
2022/12/12 11:55:25;;;;;;;5.03;3.83;;;3.90;85.30;;;;;;4936688;29;20241;-69
2022/12/12 11:58:03;;;;;;;5.43;3.72;;;3.90;85.30;;;;;;4920750;29;20296;-68
2022/12/12 12:00:44;;;;;;;6.80;4.90;;;3.90;85.40;;;;;;4897312;29;20678;-68
2022/12/12 12:03:40;;;;;;;6.00;5.07;;;3.90;85.30;;;;;;4935533;29;20221;-68
2022/12/12 12:06:28;;;;;;;5.05;4.53;;;3.90;85.30;;;;;;4914217;29;20296;-73
2022/12/12 12:09:18;;;;;;;6.50;4.43;;;3.90;85.20;;;;;;4906665;29;20595;-68
2022/12/12 12:11:57;;;;;;;4.93;4.45;;;3.90;85.40;;;;;;4914670;29;20571;-72
2022/12/12 12:14:43;;;;;;;5.88;4.53;;;3.90;86.60;;;;;;4918340;28;20222;-72
2022/12/12 12:17:21;;;;;;;4.93;4.43;;;3.90;85.40;;;;;;4934280;29;20217;-72
2022/12/12 12:19:59;;;;;;;5.05;4.53;;;3.90;85.30;;;;;;4918397;29;20249;-73
2022/12/12 12:22:40;;;;;;;7.43;4.50;;;3.90;85.50;;;;;;4914269;29;20718;-73
2022/12/12 12:25:28;;;;;;;5.43;3.70;;;3.90;85.20;;;;;;4926394;29;20708;-68
2022/12/12 12:28:09;;;;;;;5.07;4.22;;;3.90;84.90;;;;;;4911404;29;20218;-69
2022/12/12 12:30:48;;;;;;;5.00;4.15;;;3.90;85.20;;;;;;4913911;29;20194;-68
2022/12/12 12:33:34;;;;;;;4.18;3.72;;;3.90;85.10;;;;;;4909264;29;20635;-68
2022/12/12 12:36:13;;;;;;;5.82;4.50;;;3.90;85.20;;;;;;4923485;29;20208;-69
2022/12/12 12:39:01;;;;;;;4.13;3.72;;;3.90;85.20;;;;;;4924474;28;20237;-67
2022/12/12 12:41:54;;;;;;;5.22;4.00;;;3.90;85.30;;;;;;4915545;29;20233;-70
2022/12/12 12:44:37;;;;;;;9.55;4.10;;;3.90;85.40;;;;;;4918979;28;20225;-70
2022/12/12 12:47:18;;;;;;;4.68;3.58;;;3.90;85.60;;;;;;4923736;29;20220;-68
2022/12/12 12:49:51;;;;;;;7.95;4.13;;;3.90;85.60;;;;;;4904760;29;20229;-68
2022/12/12 12:52:28;;;;;;;4.75;4.20;;;3.90;85.60;;;;;;4918340;29;20831;-67
2022/12/12 12:54:59;;;;;;;4.28;3.88;;;3.90;85.60;;;;;;4915828;29;20228;-70
2022/12/12 12:57:30;;;;;;;6.05;4.00;;;3.90;85.70;;;;;;4919922;29;20225;-69
2022/12/12 13:00:04;;;;;;;4.93;3.30;;;3.90;85.60;;;;;;4919159;29;20574;-69
2022/12/12 13:02:45;;;;;;;4.60;3.72;;;3.90;85.70;;;;;;4915652;29;20205;-68
2022/12/12 13:05:19;;;;;;;4.88;3.72;;;3.80;85.60;;;;;;4932219;29;20918;-69
2022/12/12 13:07:56;;;;;;;4.47;4.05;;;3.90;85.70;;;;;;4909750;29;20240;-67
2022/12/12 13:10:28;;;;;;;4.93;3.40;;;3.90;85.70;;;;;;4933038;29;20193;-69
2022/12/12 13:12:59;;;;;;;3.10;2.80;;;3.80;85.70;;;;;;4911067;29;20232;-69
2022/12/12 13:15:32;;;;;;;7.18;4.10;;;3.80;85.70;;;;;;4946514;29;20193;-69
2022/12/12 13:18:03;;;;;;;5.75;3.38;;;3.90;85.80;;;;;;4921729;29;20977;-69
2022/12/12 13:20:38;;;;;;;3.55;3.13;;;3.90;85.80;;;;;;4917597;29;20216;-69
2022/12/12 13:23:46;;;;;;;5.32;3.10;;;3.80;85.70;;;;;;4913683;29;20256;-70
2022/12/12 13:26:21;;;;;;;3.67;3.30;;;3.90;85.80;;;;;;4915447;29;20198;-68
2022/12/12 13:28:54;;;;;;;4.43;4.13;;;3.80;85.90;;;;;;4922727;29;20322;-69
2022/12/12 13:31:54;;;;;;;3.75;3.42;;;3.90;85.90;;;;;;4913004;29;20676;-69
2022/12/12 13:34:25;;;;;;;4.18;3.30;;;3.80;85.90;;;;;;4908735;29;20221;-68
2022/12/12 13:36:56;;;;;;;5.35;3.78;;;3.80;85.90;;;;;;4916899;29;20193;-70